دوحة, قطر

04:19 PM AST on êèنêè 31, 2015 (GMT +0300)
Wakra | | Change Station
CLOSE
Current Station
Personal Weather Stations
Location: Wakra, WAKRA
Elevation: 23 ft
Nearby Weather Stations

Elev 23 ft 25.17 °N, 51.60 °E | Updated 12 seconds ago

Clear
صافية
103.7 °F
Feels Like 136 °F
N
8.5
ريح متغير ريح from ESE
Gusts 10.5 mph

هذا اليوم
High -- | Low -- °F
--% Chance of Precip.
Yesterday
High -- | Low -- °F
Precip. -- في
5:00 AM 6:19 PM
بدر, 100% visible
الضغط 29.44 في
وضوح الرؤية 5.6 أميال
سحابات
مؤشر الحرارة 136 °F
نقطة الندى 84 °F
الرطوبة 55%
Rainfall 0.00 في
عمق الثلج Not available.
الأشعة فوق البنفسجية Not available.
Pollen Not available.
جودة الهواء Not available.
Flu Activity Not available.
METAR OTBD 311300Z 03007KT 360V060 9000 NSC 40/26 Q0997 NOSIG

More Conditions Fewer Conditions

الضغط 29.44 في
وضوح الرؤية 5.6 أميال
سحابات
مؤشر الحرارة 136 °F
نقطة الندى 84 °F
الرطوبة 55%
Rainfall 0.00 في
عمق الثلج Not available.
الأشعة فوق البنفسجية Not available.
Pollen Not available.
جودة الهواء Not available.
Flu Activity Not available.
METAR OTBD 311300Z 03007KT 360V060 9000 NSC 40/26 Q0997 NOSIG

More Conditions Fewer Conditions

10-Day Weather Forecast

×

Almanac

علم الفلك

Jul. 31, 2015 Rise Set
Actual Time
Civil Twilight
Nautical Twilight
Astronomical Twilight
قمر
Length Of Visible Light
طول الیوم
Tomorrow will be .
, % of the Moon is Illuminated

Today's Extremes

Country Highs Country Lows

Community

WunderPhotos

Upload Photos

1,842,653 photos uploaded!

WunderBlogs® & News

Nearby

جودة الهواء

  جودة الهواء AQ Index Pollutant
Not available.

عمق الثلج

Station Depth Elevation

Earthquake Activity

City Distance Mag. Time & Date
Minimum magnitude displayed is 2.5.

Coastal Water Temperatures

مكان درجات الحرارة

Stations

Nearby Weather Stations

Station Location الحرارة رياح باردة نقطة الندى الرطوبة ريح Precip. Elev تحديث Type